Lake Wenatchee to Mission Ridge
Mission Ridge Ski Area
Latest observation 09/01 16:00 PDT
| Time (PDT) | Temp °F 6730' | Temp °F 5160' | Temp °F 4610' | RH % 6730' | RH % 5160' | Min mph 6730' | Spd mph 6730' | Gust mph 6730' | Dir ° 6730' | Pcp1 5160' | PcpSum in 5160' | 24Sno 5160' | SnoHt 5160' |
|---|---|---|---|---|---|---|---|---|---|---|---|---|---|
| 09/01 16:00 | 60 | – | 68 | 41 | – | 4 | 11 | 18 | 230 | – | – | – | – |
| 09/01 15:00 | 59 | – | 66 | 39 | – | 1 | 7 | 16 | 239 | – | – | – | – |
| 09/01 14:00 | 58 | – | 66 | 42 | – | 0 | 6 | 11 | 241 | – | – | – | – |
| 09/01 13:00 | 58 | – | 64 | 43 | – | 0 | 4 | 12 | 281 | – | – | – | – |
| 09/01 12:00 | 57 | – | 64 | 45 | – | 0 | 2 | 8 | 308 | – | – | – | – |
| 09/01 11:00 | 59 | – | 65 | 40 | – | 0 | 7 | 15 | 359 | – | – | – | – |
| 09/01 10:00 | 58 | – | 65 | 38 | – | 0 | 6 | 17 | 349 | – | – | – | – |
| 09/01 09:00 | 54 | – | 62 | 45 | – | 0 | 7 | 21 | 3 | – | – | – | – |
| 09/01 08:00 | 55 | – | 57 | 27 | – | 0 | 1 | 4 | 341 | – | – | – | – |
| 09/01 07:00 | 55 | – | 55 | 26 | – | 0 | 2 | 4 | 186 | – | – | – | – |
| 09/01 06:00 | 55 | – | 54 | 23 | – | 0 | 2 | 4 | 196 | – | – | – | – |
| 09/01 05:00 | 56 | – | 55 | 26 | – | 0 | 0 | 3 | 229 | – | – | – | – |
| 09/01 04:00 | 55 | – | 55 | 23 | – | 0 | 4 | 7 | 198 | – | – | – | – |
| 09/01 03:00 | 57 | – | 55 | 36 | – | 0 | 4 | 7 | 210 | – | – | – | – |
| 09/01 02:00 | 54 | – | 55 | 27 | – | 4 | 6 | 9 | 194 | – | – | – | – |
| 09/01 01:00 | 53 | – | 55 | 41 | – | 3 | 7 | 11 | 176 | – | – | – | – |
| 09/01 00:00 | 54 | – | 56 | 32 | – | 2 | 6 | 10 | 140 | – | – | – | – |
| 08/31 23:00 | 53 | – | 56 | 34 | – | 0 | 3 | 8 | 86 | – | – | – | – |
| 08/31 22:00 | 52 | – | 56 | 40 | – | 3 | 7 | 10 | 33 | – | – | – | – |
| 08/31 21:00 | 52 | – | 56 | 49 | – | 0 | 4 | 10 | 13 | – | – | – | – |
| 08/31 20:00 | 53 | – | 56 | 49 | – | 0 | 2 | 10 | 301 | – | – | – | – |
| 08/31 19:00 | 54 | – | 58 | 49 | – | 0 | 2 | 6 | 329 | – | – | – | – |
| 08/31 18:00 | 55 | – | 62 | 48 | – | 0 | 2 | 12 | 307 | – | – | – | – |
| 08/31 17:00 | 57 | – | 65 | 44 | – | 0 | 3 | 11 | 277 | – | – | – | – |

